Terminal Aerodrome Forecast
Issued by NWS

Home | Current Version | Previous Version | Text Only | Print | Product List | Glossary On
Versions: 1 2 3 4 5 6 7 8 9 10 11 12 13 14 15 16 17 18
000
FTUS43 KAPX 301100
TAFPLN
TAF
KPLN 301137Z 3012/3112 17005KT P6SM VCSH BKN080 WS020/20038KT
     FM301300 16005KT 5SM -SHRA VCTS SCT025 BKN040CB OVC100
     FM301700 21008G16KT P6SM VCSH SCT025 BKN040 OVC080
     FM301900 23007G15KT 5SM -SHRA VCTS SCT020 BKN035CB BKN080
     FM302300 27007KT P6SM OVC015
     FM310300 28007KT 6SM BR OVC008
     FM310700 27005KT 5SM BR OVC005=

USA.gov is the U.S. government's official web portal to all federal, state and local government web resources and services.